Time,TemperatureF,DewpointF,PressureIn,WindDirection,WindDirectionDegrees,WindSpeedMPH,WindSpeedGustMPH,Humidity,HourlyPrecipIn,Conditions,Clouds,dailyrainin,SoftwareType,DateUTC
2013-07-07 00:00:00,73.6,68.8,30.02,SE,135,1.9,5.0,85,0.00,,BKN043,0.00,VWS V13.01,2013-07-06 14:00:00,
2013-07-07 00:30:00,73.4,69.0,30.02,SE,135,1.9,5.0,86,0.00,,BKN043,0.00,VWS V13.01,2013-07-06 14:30:00,
2013-07-07 00:45:00,73.1,69.0,30.01,SSE,158,0.6,3.8,87,0.00,,BKN043,0.00,VWS V13.01,2013-07-06 14:45:00,
2013-07-07 01:00:00,72.9,68.8,30.01,SE,135,1.9,6.2,87,0.00,,BKN043,0.00,VWS V13.01,2013-07-06 15:00:00,
2013-07-07 01:15:00,73.1,68.7,30.01,SE,135,1.9,8.7,86,0.00,,BKN043,0.00,VWS V13.01,2013-07-06 15:15:00,
2013-07-07 01:30:00,73.2,69.1,30.01,SE,135,1.9,5.0,87,0.00,,BKN043,0.00,VWS V13.01,2013-07-06 15:30:00,
2013-07-07 01:45:00,73.1,69.0,30.01,SE,135,1.9,7.5,87,0.00,,BKN043,0.00,VWS V13.01,2013-07-06 15:45:00,
2013-07-07 02:00:00,73.1,69.0,30.00,SE,135,3.1,7.5,87,0.00,,BKN043,0.00,VWS V13.01,2013-07-06 16:00:00,
2013-07-07 02:15:00,72.9,69.1,30.00,SE,135,1.9,6.2,88,0.00,,BKN043,0.00,VWS V13.01,2013-07-06 16:15:00,
2013-07-07 02:30:00,72.7,68.9,29.99,SE,135,1.9,6.2,88,0.00,,BKN043,0.00,VWS V13.01,2013-07-06 16:30:00,
2013-07-07 02:45:00,72.7,68.9,29.99,SE,135,1.9,7.5,88,0.00,,BKN043,0.00,VWS V13.01,2013-07-06 16:45:00,
2013-07-07 03:00:00,72.8,69.0,29.99,SE,135,1.9,6.2,88,0.00,,BKN043,0.00,VWS V13.01,2013-07-06 17:00:00,
2013-07-07 03:15:00,72.9,69.1,29.99,SE,135,1.9,7.5,88,0.00,,BKN043,0.00,VWS V13.01,2013-07-06 17:15:00,
2013-07-07 03:30:00,73.0,68.9,29.99,SE,135,1.9,5.0,87,0.00,,BKN043,0.00,VWS V13.01,2013-07-06 17:30:00,
2013-07-07 03:45:00,73.1,69.0,29.99,SE,135,1.9,7.5,87,0.00,,BKN043,0.00,VWS V13.01,2013-07-06 17:45:00,
2013-07-07 04:00:00,73.1,69.0,29.99,SE,135,1.9,3.8,87,0.00,,BKN043,0.00,VWS V13.01,2013-07-06 18:00:00,
2013-07-07 04:15:00,73.0,68.9,29.99,SE,135,0.6,2.5,87,0.00,,BKN043,0.00,VWS V13.01,2013-07-06 18:15:00,
2013-07-07 04:45:00,73.6,69.2,29.99,SE,135,1.9,6.2,86,0.00,,BKN043,0.00,VWS V13.01,2013-07-06 18:45:00,
2013-07-07 05:00:00,73.7,69.3,29.99,SE,135,1.9,3.8,86,0.00,,BKN043,0.00,VWS V13.01,2013-07-06 19:00:00,
2013-07-07 05:15:00,73.7,69.6,29.99,SE,135,1.9,3.8,87,0.00,,BKN043,0.00,VWS V13.01,2013-07-06 19:15:00,
2013-07-07 05:30:00,73.7,69.9,30.00,SE,135,1.9,6.2,88,0.01,,BKN043,0.01,VWS V13.01,2013-07-06 19:30:00,
2013-07-07 05:45:00,73.2,70.4,30.00,SE,135,1.9,8.7,91,0.06,,BKN043,0.06,VWS V13.01,2013-07-06 19:45:00,
2013-07-07 06:00:00,72.6,70.2,30.01,SE,135,1.9,5.0,92,0.06,,BKN043,0.06,VWS V13.01,2013-07-06 20:00:00,
2013-07-07 06:15:00,72.4,70.3,30.01,SE,135,0.6,3.8,93,0.06,,BKN043,0.06,VWS V13.01,2013-07-06 20:15:00,
2013-07-07 06:45:00,72.1,70.3,30.02,SE,135,0.6,0.0,94,0.06,,BKN043,0.06,VWS V13.01,2013-07-06 20:45:00,
2013-07-07 07:12:00,72.1,70.3,30.03,SE,135,0.6,0.0,94,0.00,,BKN043,0.06,VWS V13.01,2013-07-06 21:12:00,
2013-07-07 07:13:00,72.3,70.2,30.03,SE,143,1.9,0.0,93,0.00,,BKN043,0.06,VWS V13.01,2013-07-06 21:13:00,
2013-07-07 07:15:00,72.3,70.2,30.03,SE,143,0.6,0.0,93,0.00,,BKN050,0.06,VWS V13.01,2013-07-06 21:15:00,
2013-07-07 07:18:00,72.4,70.3,30.03,SE,137,0.6,0.0,93,0.00,,BKN043,0.06,VWS V13.01,2013-07-06 21:18:00,
2013-07-07 07:23:00,72.4,70.3,30.03,SE,137,1.9,0.0,93,0.00,,BKN043,0.06,VWS V13.01,2013-07-06 21:23:00,
2013-07-07 07:28:00,72.5,70.4,30.03,SE,137,0.6,0.0,93,0.00,,BKN043,0.06,VWS V13.01,2013-07-06 21:28:00,
2013-07-07 07:33:00,72.8,70.7,30.04,SSE,149,1.9,0.0,93,0.00,,BKN050,0.06,VWS V13.01,2013-07-06 21:33:00,
2013-07-07 07:38:00,72.9,70.4,30.04,SE,135,0.6,0.0,92,0.00,,BKN050,0.06,VWS V13.01,2013-07-06 21:38:00,
2013-07-07 07:43:00,73.0,70.5,30.04,SSE,147,3.1,0.0,92,0.00,,BKN050,0.06,VWS V13.01,2013-07-06 21:43:00,
2013-07-07 07:48:00,73.1,70.6,30.04,SE,137,0.6,0.0,92,0.00,,BKN060,0.06,VWS V13.01,2013-07-06 21:48:00,
2013-07-07 07:54:00,73.3,70.8,30.04,SE,133,0.6,0.0,92,0.00,,BKN060,0.06,VWS V13.01,2013-07-06 21:54:00,
2013-07-07 08:00:00,73.2,70.4,30.04,SE,135,1.9,7.5,91,0.00,,BKN060,0.06,VWS V13.01,2013-07-06 22:00:00,
2013-07-07 08:15:00,74.1,71.0,30.05,SE,135,0.6,5.0,90,0.00,,BKN060,0.06,VWS V13.01,2013-07-06 22:15:00,
2013-07-07 08:30:00,74.6,69.8,30.05,SE,135,3.1,11.3,85,0.01,,BKN060,0.07,VWS V13.01,2013-07-06 22:30:00,
2013-07-07 08:45:00,76.6,69.2,30.05,SE,135,5.6,13.7,78,0.01,,BKN060,0.07,VWS V13.01,2013-07-06 22:45:00,
2013-07-07 09:00:00,77.8,70.0,30.05,SE,135,5.6,15.0,77,0.01,,BKN060,0.07,VWS V13.01,2013-07-06 23:00:00,
2013-07-07 09:15:00,78.0,69.4,30.05,SE,135,5.6,15.0,75,0.01,,BKN060,0.07,VWS V13.01,2013-07-06 23:15:00,
2013-07-07 09:30:00,78.6,69.6,30.06,SE,135,5.6,18.7,74,0.01,,BKN060,0.07,VWS V13.01,2013-07-06 23:30:00,
2013-07-07 09:45:00,79.4,70.8,30.06,SE,135,8.1,18.7,75,0.00,,BKN060,0.07,VWS V13.01,2013-07-06 23:45:00,
2013-07-07 10:00:00,78.8,70.2,30.06,SE,135,6.9,20.0,75,0.00,,BKN060,0.07,VWS V13.01,2013-07-07 00:00:00,
2013-07-07 10:15:00,79.4,70.0,30.05,SE,135,6.9,16.3,73,0.00,,BKN060,0.07,VWS V13.01,2013-07-07 00:15:00,
2013-07-07 10:30:00,79.8,70.0,30.05,SE,135,8.1,17.5,72,0.00,,BKN060,0.07,VWS V13.01,2013-07-07 00:30:00,
2013-07-07 10:45:00,80.7,69.6,30.05,SE,135,6.9,15.0,69,0.00,,BKN060,0.07,VWS V13.01,2013-07-07 00:45:00,
2013-07-07 11:00:00,81.1,70.4,30.05,SE,135,6.9,16.3,70,0.00,,BKN060,0.07,VWS V13.01,2013-07-07 01:00:00,
2013-07-07 11:15:00,81.1,69.6,30.05,SE,135,8.1,18.7,68,0.00,,BKN060,0.07,VWS V13.01,2013-07-07 01:15:00,
2013-07-07 11:30:00,81.1,70.0,30.04,SE,135,6.9,18.7,69,0.00,,BKN060,0.07,VWS V13.01,2013-07-07 01:30:00,
2013-07-07 11:45:00,81.0,69.9,30.04,SE,135,8.1,22.5,69,0.00,,BKN060,0.07,VWS V13.01,2013-07-07 01:45:00,
2013-07-07 12:00:00,80.7,70.0,30.03,SE,135,8.1,21.3,70,0.00,,BKN060,0.07,VWS V13.01,2013-07-07 02:00:00,
2013-07-07 12:15:00,80.8,69.3,30.02,SE,135,8.1,21.3,68,0.00,,BKN060,0.07,VWS V13.01,2013-07-07 02:15:00,
2013-07-07 12:30:00,80.5,69.4,30.02,SE,135,8.1,17.5,69,0.00,,BKN060,0.07,VWS V13.01,2013-07-07 02:30:00,
2013-07-07 12:45:00,80.3,69.6,30.01,SE,135,8.1,17.5,70,0.00,,BKN060,0.07,VWS V13.01,2013-07-07 02:45:00,
2013-07-07 13:00:00,80.8,69.3,30.01,SE,135,8.1,18.7,68,0.00,,BKN060,0.07,VWS V13.01,2013-07-07 03:00:00,
2013-07-07 13:15:00,81.1,70.0,30.01,SE,135,6.9,20.0,69,0.00,,BKN060,0.07,VWS V13.01,2013-07-07 03:15:00,
2013-07-07 13:30:00,81.2,69.6,30.00,SE,135,8.1,17.5,68,0.00,,BKN060,0.07,VWS V13.01,2013-07-07 03:30:00,
2013-07-07 13:45:00,81.3,69.7,29.99,SE,135,8.1,18.7,68,0.00,,BKN060,0.07,VWS V13.01,2013-07-07 03:45:00,
2013-07-07 14:00:00,81.3,69.7,29.99,SE,135,6.9,17.5,68,0.00,,BKN060,0.07,VWS V13.01,2013-07-07 04:00:00,
2013-07-07 14:15:00,80.8,69.7,29.98,SE,135,8.1,18.7,69,0.00,,BKN060,0.07,VWS V13.01,2013-07-07 04:15:00,
2013-07-07 14:30:00,80.9,69.8,29.98,SE,135,6.9,16.3,69,0.00,,BKN060,0.07,VWS V13.01,2013-07-07 04:30:00,
2013-07-07 14:45:00,80.7,70.0,29.98,ESE,112,6.9,20.0,70,0.00,,BKN060,0.07,VWS V13.01,2013-07-07 04:45:00,
2013-07-07 15:00:00,80.9,70.2,29.98,SE,135,6.9,17.5,70,0.00,,BKN060,0.07,VWS V13.01,2013-07-07 05:00:00,
2013-07-07 15:24:00,80.7,70.0,29.98,SE,135,6.9,15.0,70,0.00,,BKN060,0.07,VWS V13.01,2013-07-07 05:24:00,
2013-07-07 15:29:00,80.3,69.6,29.98,ESE,121,4.4,15.0,70,0.00,,BKN060,0.07,VWS V13.01,2013-07-07 05:29:00,
2013-07-07 17:10:00,76.5,68.8,30.00,ESE,117,3.1,15.0,77,0.00,,FEW025,0.07,VWS V13.01,2013-07-07 07:10:00,
2013-07-07 17:15:00,76.3,68.6,30.00,SE,142,4.4,15.0,77,0.00,,FEW025,0.07,VWS V13.01,2013-07-07 07:15:00,
2013-07-07 17:20:00,76.1,68.4,30.01,SE,141,6.9,15.0,77,0.00,,FEW025,0.07,VWS V13.01,2013-07-07 07:20:00,
2013-07-07 17:25:00,76.0,68.7,30.01,SSE,149,1.9,15.0,78,0.00,,FEW025,0.07,VWS V13.01,2013-07-07 07:25:00,
2013-07-07 17:30:00,75.8,68.5,30.01,ESE,105,6.9,15.0,78,0.00,,FEW025,0.07,VWS V13.01,2013-07-07 07:30:00,
2013-07-07 17:45:00,75.7,68.4,30.01,SE,135,5.6,13.7,78,0.00,,FEW025,0.07,VWS V13.01,2013-07-07 07:45:00,
2013-07-07 18:00:00,75.2,68.2,30.02,SE,135,5.6,16.3,79,0.00,,FEW025,0.07,VWS V13.01,2013-07-07 08:00:00,
2013-07-07 18:04:00,74.9,68.3,30.02,SE,140,3.1,15.0,80,0.00,,FEW025,0.07,VWS V13.01,2013-07-07 08:04:00,
2013-07-07 18:15:00,74.9,68.3,30.02,SE,135,5.6,13.7,80,0.00,,FEW025,0.07,VWS V13.01,2013-07-07 08:15:00,
2013-07-07 18:30:00,74.8,68.2,30.03,SE,135,4.4,16.3,80,0.00,,FEW025,0.07,VWS V13.01,2013-07-07 08:30:00,
2013-07-07 18:45:00,74.8,67.9,30.03,SE,135,6.9,17.5,79,0.00,,FEW025,0.07,VWS V13.01,2013-07-07 08:45:00,
2013-07-07 19:00:00,74.7,67.8,30.04,SE,135,5.6,13.7,79,0.00,,FEW025,0.07,VWS V13.01,2013-07-07 09:00:00,
2013-07-07 19:15:00,74.6,67.3,30.04,SE,135,5.6,13.7,78,0.00,,FEW025,0.07,VWS V13.01,2013-07-07 09:15:00,
2013-07-07 19:30:00,74.8,67.1,30.05,SE,135,5.6,13.7,77,0.00,,FEW025,0.07,VWS V13.01,2013-07-07 09:30:00,
2013-07-07 19:45:00,74.7,66.6,30.05,SE,135,5.6,15.0,76,0.00,,FEW025,0.07,VWS V13.01,2013-07-07 09:45:00,
2013-07-07 20:00:00,74.7,66.3,30.06,SE,135,6.9,17.5,75,0.00,,FEW025,0.07,VWS V13.01,2013-07-07 10:00:00,
2013-07-07 20:15:00,74.6,66.5,30.07,SE,135,5.6,17.5,76,0.00,,FEW025,0.07,VWS V13.01,2013-07-07 10:15:00,
2013-07-07 20:30:00,74.2,66.2,30.07,SE,135,5.6,15.0,76,0.00,,FEW025,0.07,VWS V13.01,2013-07-07 10:30:00,
2013-07-07 20:45:00,73.9,66.2,30.08,SE,135,6.9,18.7,77,0.00,,FEW025,0.07,VWS V13.01,2013-07-07 10:45:00,
2013-07-07 21:00:00,73.6,66.3,30.08,SE,135,4.4,11.3,78,0.00,,FEW025,0.07,VWS V13.01,2013-07-07 11:00:00,
2013-07-07 21:15:00,73.3,66.0,30.09,SE,135,4.4,15.0,78,0.00,,FEW025,0.07,VWS V13.01,2013-07-07 11:15:00,
2013-07-07 21:30:00,72.7,66.2,30.09,SSE,158,1.9,5.0,80,0.00,,FEW025,0.07,VWS V13.01,2013-07-07 11:30:00,
2013-07-07 21:45:00,72.3,66.5,30.09,SE,135,1.9,6.2,82,0.00,,FEW025,0.07,VWS V13.01,2013-07-07 11:45:00,
2013-07-07 22:00:00,72.1,66.7,30.10,SE,135,3.1,8.7,83,0.00,,FEW025,0.07,VWS V13.01,2013-07-07 12:00:00,
2013-07-07 22:15:00,72.3,66.5,30.10,SE,135,3.1,12.5,82,0.00,,FEW025,0.07,VWS V13.01,2013-07-07 12:15:00,
2013-07-07 22:30:00,72.7,66.5,30.10,SE,135,3.1,12.5,81,0.00,,FEW025,0.07,VWS V13.01,2013-07-07 12:30:00,
2013-07-07 22:45:00,73.0,66.5,30.10,SE,135,4.4,15.0,80,0.00,,FEW025,0.07,VWS V13.01,2013-07-07 12:45:00,
2013-07-07 23:00:00,73.0,66.5,30.09,SE,135,4.4,13.7,80,0.00,,FEW025,0.07,VWS V13.01,2013-07-07 13:00:00,
2013-07-07 23:15:00,73.2,66.3,30.09,SE,135,4.4,12.5,79,0.00,,FEW025,0.07,VWS V13.01,2013-07-07 13:15:00,
2013-07-07 23:30:00,73.5,66.6,30.09,SE,135,4.4,12.5,79,0.00,,FEW025,0.07,VWS V13.01,2013-07-07 13:30:00,
2013-07-07 23:45:00,73.5,67.0,30.09,SE,135,3.1,12.5,80,0.00,,FEW025,0.07,VWS V13.01,2013-07-07 13:45:00,